createdAt,value
2022-08-14T00:01:03.898Z,58.45
2022-08-14T00:03:37.549Z,58.38
2022-08-14T00:06:14.092Z,58.59
2022-08-14T00:08:54.235Z,58.91
2022-08-14T00:11:31.217Z,59.09
2022-08-14T00:14:01.541Z,59.15
2022-08-14T00:16:41.451Z,59.18
2022-08-14T00:19:19.642Z,59.21
2022-08-14T00:21:50.660Z,59.19
2022-08-14T00:24:23.282Z,58.97
2022-08-14T00:26:57.215Z,59.20
2022-08-14T00:29:25.179Z,58.92
2022-08-14T00:31:56.291Z,59.50
2022-08-14T00:34:37.215Z,59.63
2022-08-14T00:37:11.746Z,59.94
2022-08-14T00:39:39.759Z,59.87
2022-08-14T00:42:21.183Z,59.70
2022-08-14T00:44:48.834Z,59.87
2022-08-14T00:47:17.113Z,59.58
2022-08-14T00:49:45.609Z,59.97
2022-08-14T00:52:14.265Z,59.94
2022-08-14T00:54:46.521Z,59.70
2022-08-14T00:57:13.873Z,60.17
2022-08-14T00:59:40.789Z,60.22
2022-08-14T01:02:09.449Z,60.43
2022-08-14T01:04:54.375Z,60.25
2022-08-14T01:07:23.203Z,60.56
2022-08-14T01:09:55.346Z,60.53
2022-08-14T01:12:27.336Z,60.52
2022-08-14T01:15:02.388Z,60.55
2022-08-14T01:17:31.518Z,60.59
2022-08-14T01:19:59.524Z,60.82
2022-08-14T01:22:26.775Z,60.46
2022-08-14T01:24:53.919Z,60.44
2022-08-14T01:27:24.131Z,60.80
2022-08-14T01:30:01.258Z,60.79
2022-08-14T01:32:35.560Z,60.49
2022-08-14T01:35:18.267Z,60.35
2022-08-14T01:37:58.713Z,60.61
2022-08-14T01:40:36.765Z,60.74
2022-08-14T01:43:12.507Z,60.75
2022-08-14T01:45:41.086Z,61.10
2022-08-14T01:48:13.510Z,61.18
2022-08-14T01:50:42.569Z,61.26
2022-08-14T01:53:10.550Z,61.34
2022-08-14T01:55:40.305Z,61.73
2022-08-14T01:58:19.628Z,61.81
2022-08-14T02:00:51.859Z,61.63
2022-08-14T02:03:18.684Z,61.48
2022-08-14T02:05:49.034Z,61.07
2022-08-14T02:08:16.156Z,61.08
2022-08-14T02:10:49.467Z,61.21
2022-08-14T02:13:18.499Z,61.54
2022-08-14T02:15:48.665Z,61.67
2022-08-14T02:18:18.277Z,61.76
2022-08-14T02:20:45.640Z,61.81
2022-08-14T02:23:14.266Z,62.16
2022-08-14T02:25:42.177Z,61.89
2022-08-14T02:28:23.243Z,61.92
2022-08-14T02:30:56.828Z,62.17
2022-08-14T02:33:23.863Z,62.06
2022-08-14T02:35:53.570Z,62.14
2022-08-14T02:38:30.171Z,61.98
2022-08-14T02:40:58.525Z,62.51
2022-08-14T02:43:25.794Z,62.80
2022-08-14T02:46:06.588Z,63.04
2022-08-14T02:49:03.523Z,62.83
2022-08-14T02:51:30.460Z,62.92
2022-08-14T02:53:57.340Z,63.09
2022-08-14T02:56:29.518Z,63.40
2022-08-14T02:59:00.259Z,63.93
2022-08-14T03:01:31.459Z,63.36
2022-08-14T03:04:13.153Z,63.65
2022-08-14T03:07:06.787Z,63.84
2022-08-14T03:09:42.346Z,63.24
2022-08-14T03:12:17.911Z,63.16
2022-08-14T03:14:59.287Z,63.01
2022-08-14T03:17:26.326Z,63.32
2022-08-14T03:19:58.352Z,63.33
2022-08-14T03:22:27.819Z,63.30
2022-08-14T03:24:56.700Z,63.22
2022-08-14T03:27:23.554Z,63.10
2022-08-14T03:29:53.315Z,63.20
2022-08-14T03:32:19.892Z,62.78
2022-08-14T03:34:58.590Z,63.26
2022-08-14T03:37:39.108Z,63.16
2022-08-14T03:40:17.570Z,63.34
2022-08-14T03:42:45.409Z,63.58
2022-08-14T03:45:26.134Z,63.52
2022-08-14T03:48:01.646Z,63.67
2022-08-14T03:50:31.591Z,63.64
2022-08-14T03:53:03.429Z,63.10
2022-08-14T03:55:31.044Z,63.71
2022-08-14T03:57:58.457Z,63.33
2022-08-14T04:00:43.903Z,63.83
2022-08-14T04:03:18.038Z,64.12
2022-08-14T04:05:50.373Z,63.88
2022-08-14T04:08:29.243Z,64.48
2022-08-14T04:10:57.455Z,64.93
2022-08-14T04:13:24.657Z,64.91
2022-08-14T04:15:56.778Z,65.11
2022-08-14T04:18:28.462Z,65.19
2022-08-14T04:20:55.940Z,65.35
2022-08-14T04:23:30.009Z,65.19
2022-08-14T04:26:04.136Z,65.03
2022-08-14T04:29:07.190Z,65.20
2022-08-14T04:32:56.420Z,65.44
2022-08-14T04:34:07.896Z,65.42
2022-08-14T04:36:35.194Z,65.04
2022-08-14T04:39:02.978Z,64.77
2022-08-14T04:41:30.589Z,64.83
2022-08-14T04:43:57.823Z,64.32
2022-08-14T04:46:57.063Z,64.65
2022-08-14T04:49:11.470Z,64.80
2022-08-14T04:51:56.038Z,64.34
2022-08-14T04:54:27.329Z,63.95
2022-08-14T04:56:55.650Z,63.77
2022-08-14T04:59:23.568Z,63.64
2022-08-14T05:01:53.985Z,62.90
2022-08-14T05:04:23.522Z,63.36
2022-08-14T05:06:54.205Z,62.71
2022-08-14T05:09:23.272Z,62.52
2022-08-14T05:11:49.976Z,62.15
2022-08-14T05:14:46.905Z,61.37
2022-08-14T05:17:06.822Z,59.69
2022-08-14T05:19:33.667Z,60.55
2022-08-14T05:22:17.544Z,59.92
2022-08-14T05:24:49.598Z,61.19
2022-08-14T05:27:19.402Z,61.96
2022-08-14T05:29:46.555Z,61.96
2022-08-14T05:32:14.194Z,61.54
2022-08-14T05:34:41.731Z,61.83
2022-08-14T05:37:12.579Z,62.19
2022-08-14T05:39:41.970Z,62.21
2022-08-14T05:42:09.859Z,61.10
2022-08-14T05:44:48.515Z,61.64
2022-08-14T05:47:16.063Z,62.09
2022-08-14T05:49:43.695Z,61.15
2022-08-14T05:52:10.847Z,62.46
2022-08-14T05:54:44.647Z,61.90
2022-08-14T05:57:11.296Z,62.97
2022-08-14T05:59:39.705Z,62.78
2022-08-14T06:02:11.060Z,62.54
2022-08-14T06:04:39.553Z,62.77
2022-08-14T06:07:06.565Z,62.65
2022-08-14T06:09:35.912Z,61.76
2022-08-14T06:12:11.997Z,60.89
2022-08-14T06:14:39.431Z,59.78
2022-08-14T06:17:06.667Z,59.71
2022-08-14T06:19:33.412Z,60.66
2022-08-14T06:22:00.117Z,60.24
2022-08-14T06:24:30.477Z,59.81
2022-08-14T06:27:04.625Z,57.79
2022-08-14T06:29:34.769Z,59.86
2022-08-14T06:32:52.507Z,58.56
2022-08-14T06:35:09.432Z,57.84
2022-08-14T06:37:46.912Z,59.48
2022-08-14T06:40:26.215Z,57.69
2022-08-14T06:43:09.969Z,56.94
2022-08-14T06:45:39.335Z,57.09
2022-08-14T06:48:17.140Z,57.16
2022-08-14T06:50:45.437Z,56.62
2022-08-14T06:53:14.711Z,56.44
2022-08-14T06:55:58.192Z,56.03
2022-08-14T06:58:29.212Z,55.17
2022-08-14T07:00:57.937Z,55.27
2022-08-14T07:03:24.832Z,56.45
2022-08-14T07:05:57.975Z,56.33
2022-08-14T07:08:29.515Z,55.00
2022-08-14T07:11:01.714Z,55.90
2022-08-14T07:13:30.617Z,55.15
2022-08-14T07:16:00.702Z,56.66
2022-08-14T07:18:34.018Z,54.26
2022-08-14T07:21:02.560Z,55.59
2022-08-14T07:23:31.065Z,55.38
2022-08-14T07:26:00.076Z,56.56
2022-08-14T07:28:30.219Z,56.60
2022-08-14T07:31:05.303Z,56.28
2022-08-14T07:33:50.238Z,56.64
2022-08-14T07:36:27.930Z,56.22
2022-08-14T07:38:59.465Z,55.41
2022-08-14T07:41:33.702Z,56.22
2022-08-14T07:44:28.932Z,56.52
2022-08-14T07:46:48.498Z,56.38
2022-08-14T07:49:18.233Z,56.20
2022-08-14T07:51:45.913Z,56.18
2022-08-14T07:54:23.109Z,56.35
2022-08-14T07:57:00.856Z,56.35
2022-08-14T07:59:40.984Z,56.23
2022-08-14T08:02:18.657Z,55.83
2022-08-14T08:04:50.161Z,57.33
2022-08-14T08:07:17.115Z,55.61
2022-08-14T08:09:55.452Z,55.80
2022-08-14T08:12:28.002Z,55.30
2022-08-14T08:15:03.469Z,55.08
2022-08-14T08:17:38.734Z,55.32
2022-08-14T08:20:15.595Z,55.19
2022-08-14T08:22:48.074Z,56.04
2022-08-14T08:25:18.137Z,55.27
2022-08-14T08:28:08.359Z,55.63
2022-08-14T08:30:37.920Z,52.28
2022-08-14T08:33:17.095Z,52.87
2022-08-14T08:35:50.852Z,52.70
2022-08-14T08:39:18.871Z,51.23
2022-08-14T08:41:11.424Z,52.19
2022-08-14T08:43:39.699Z,52.81
2022-08-14T08:46:23.360Z,51.72
2022-08-14T08:51:30.710Z,50.41
2022-08-14T08:54:14.966Z,50.92
2022-08-14T08:56:51.870Z,50.27
2022-08-14T08:59:27.315Z,50.91
2022-08-14T09:02:05.158Z,51.49
2022-08-14T09:04:45.292Z,50.85
2022-08-14T09:07:28.294Z,50.43
2022-08-14T09:10:00.152Z,50.29
2022-08-14T09:12:33.195Z,48.55
2022-08-14T09:15:12.243Z,48.78
2022-08-14T09:17:41.561Z,46.80
2022-08-14T09:20:11.526Z,47.91
2022-08-14T09:22:47.485Z,47.05
2022-08-14T09:25:16.492Z,47.44
2022-08-14T09:27:43.848Z,47.00
2022-08-14T09:30:31.504Z,48.20
2022-08-14T09:33:04.823Z,48.02
2022-08-14T09:35:49.681Z,47.96
2022-08-14T09:38:40.595Z,47.38
2022-08-14T09:42:17.437Z,46.43
2022-08-14T09:44:54.147Z,47.73
2022-08-14T09:47:21.388Z,48.31
2022-08-14T09:49:53.296Z,47.73
2022-08-14T09:52:32.666Z,47.28
2022-08-14T09:55:17.359Z,47.54
2022-08-14T09:57:51.599Z,46.62
2022-08-14T10:00:42.080Z,45.15
2022-08-14T10:03:09.576Z,45.87
2022-08-14T10:05:39.366Z,46.33
2022-08-14T10:08:25.286Z,45.26
2022-08-14T10:10:57.042Z,43.88
2022-08-14T10:13:29.350Z,42.89
2022-08-14T10:16:26.089Z,42.89
2022-08-14T10:19:07.607Z,41.43
2022-08-14T10:21:58.281Z,41.98
2022-08-14T10:24:37.290Z,41.57
2022-08-14T10:27:05.152Z,40.50
2022-08-14T10:29:38.898Z,41.70
2022-08-14T10:32:17.771Z,41.96
2022-08-14T10:34:46.983Z,41.52
2022-08-14T10:37:20.120Z,39.84
2022-08-14T10:40:10.650Z,39.60
2022-08-14T10:42:48.340Z,39.93
2022-08-14T10:45:35.399Z,40.80
2022-08-14T10:48:24.431Z,39.94
2022-08-14T10:51:02.861Z,39.41
2022-08-14T10:53:35.797Z,38.36
2022-08-14T10:56:21.537Z,37.80
2022-08-14T10:59:08.153Z,37.49
2022-08-14T11:01:41.454Z,35.85
2022-08-14T11:04:26.017Z,36.42
2022-08-14T11:06:57.986Z,37.33
2022-08-14T11:09:25.985Z,37.05
2022-08-14T11:11:56.543Z,35.28
2022-08-14T11:14:51.124Z,35.39
2022-08-14T11:17:27.783Z,35.51
2022-08-14T11:20:00.177Z,35.05
2022-08-14T11:22:52.598Z,36.79
2022-08-14T11:25:16.734Z,37.22
2022-08-14T11:27:45.774Z,37.55
2022-08-14T11:30:50.076Z,36.67
2022-08-14T11:33:09.361Z,35.89
2022-08-14T11:35:47.854Z,36.57
2022-08-14T11:38:17.030Z,34.85
2022-08-14T11:40:47.157Z,36.01
2022-08-14T11:43:15.094Z,37.80
2022-08-14T11:45:47.806Z,36.79
2022-08-14T11:49:02.642Z,38.19
2022-08-14T11:51:19.741Z,37.39
2022-08-14T11:54:05.513Z,38.08
2022-08-14T11:56:37.339Z,37.37
2022-08-14T11:59:07.142Z,37.80
2022-08-14T12:01:38.069Z,38.21
2022-08-14T12:04:31.701Z,38.12
2022-08-14T12:06:59.617Z,38.31
2022-08-14T12:09:32.672Z,39.59
2022-08-14T12:12:01.204Z,40.45
2022-08-14T12:14:30.873Z,41.16
2022-08-14T12:17:05.612Z,41.47
2022-08-14T12:19:51.555Z,41.19
2022-08-14T12:22:40.137Z,41.34
2022-08-14T12:25:19.743Z,42.21
2022-08-14T12:27:53.353Z,41.48
2022-08-14T12:30:42.458Z,42.29
2022-08-14T12:33:46.898Z,42.79
2022-08-14T12:36:21.189Z,42.20
2022-08-14T12:38:48.743Z,42.71
2022-08-14T12:41:24.123Z,42.95
2022-08-14T12:44:00.562Z,41.71
2022-08-14T12:46:35.995Z,41.43
2022-08-14T12:49:10.993Z,42.16
2022-08-14T12:51:38.119Z,41.83
2022-08-14T12:54:27.441Z,40.29
2022-08-14T12:57:18.968Z,41.69
2022-08-14T12:59:47.305Z,42.10
2022-08-14T13:02:26.397Z,40.61
2022-08-14T13:04:57.117Z,40.89
2022-08-14T13:07:26.946Z,40.36
2022-08-14T13:10:00.250Z,40.46
2022-08-14T13:12:31.820Z,40.20
2022-08-14T13:15:09.676Z,40.25
2022-08-14T13:17:51.198Z,40.36
2022-08-14T13:20:24.564Z,40.84
2022-08-14T13:22:53.617Z,41.55
2022-08-14T13:25:24.278Z,40.59
2022-08-14T13:27:54.552Z,40.25
2022-08-14T13:30:24.390Z,40.36
2022-08-14T13:32:53.964Z,40.38
2022-08-14T13:35:22.876Z,40.18
2022-08-14T13:37:52.385Z,40.18
2022-08-14T13:40:26.705Z,40.45
2022-08-14T13:42:54.735Z,41.46
2022-08-14T13:45:23.866Z,41.60
2022-08-14T13:48:00.899Z,41.42
2022-08-14T13:50:27.667Z,42.05
2022-08-14T13:52:59.563Z,43.55
2022-08-14T13:55:29.043Z,43.23
2022-08-14T13:58:03.605Z,44.06
2022-08-14T14:00:53.160Z,43.73
2022-08-14T14:03:24.699Z,43.81
2022-08-14T14:05:55.153Z,43.21
2022-08-14T14:08:43.645Z,42.09
2022-08-14T14:11:11.371Z,42.65
2022-08-14T14:13:44.685Z,43.59
2022-08-14T14:16:15.083Z,44.68
2022-08-14T14:18:46.132Z,43.77
2022-08-14T14:21:14.075Z,42.89
2022-08-14T14:23:42.167Z,43.00
2022-08-14T14:26:13.721Z,42.51
2022-08-14T14:28:42.612Z,41.74
2022-08-14T14:31:11.110Z,41.77
2022-08-14T14:33:46.782Z,41.90
2022-08-14T14:36:20.875Z,42.14
2022-08-14T14:38:53.588Z,40.28
2022-08-14T14:41:23.140Z,40.45
2022-08-14T14:43:51.484Z,39.01
2022-08-14T14:46:21.023Z,38.67
2022-08-14T14:48:54.095Z,38.60
2022-08-14T14:51:21.759Z,40.24
2022-08-14T14:53:48.372Z,40.90
2022-08-14T14:56:50.949Z,41.79
2022-08-14T14:59:02.054Z,40.95
2022-08-14T15:01:28.733Z,41.02
2022-08-14T15:03:56.753Z,40.52
2022-08-14T15:06:29.027Z,39.37
2022-08-14T15:08:59.974Z,38.41
2022-08-14T15:11:30.093Z,39.39
2022-08-14T15:13:57.374Z,39.01
2022-08-14T15:16:24.872Z,39.39
2022-08-14T15:18:51.642Z,38.56
2022-08-14T15:21:20.119Z,39.23
2022-08-14T15:23:46.712Z,39.31
2022-08-14T15:26:23.899Z,38.53
2022-08-14T15:29:07.631Z,40.13
2022-08-14T15:31:36.187Z,41.92
2022-08-14T15:34:43.803Z,40.89
2022-08-14T15:36:50.758Z,39.62
2022-08-14T15:39:17.519Z,40.39
2022-08-14T15:41:45.265Z,39.63
2022-08-14T15:44:25.224Z,40.08
2022-08-14T15:46:54.023Z,39.86
2022-08-14T15:49:22.935Z,39.90
2022-08-14T15:51:50.989Z,40.00
2022-08-14T15:54:17.814Z,39.67
2022-08-14T15:57:05.786Z,40.02
2022-08-14T15:59:36.026Z,39.68
2022-08-14T16:02:02.721Z,39.21
2022-08-14T16:04:29.527Z,38.04
2022-08-14T16:06:56.844Z,37.81
2022-08-14T16:09:23.449Z,37.50
2022-08-14T16:11:53.747Z,37.17
2022-08-14T16:14:21.886Z,37.37
2022-08-14T16:17:00.321Z,37.61
2022-08-14T16:19:29.381Z,37.71
2022-08-14T16:22:57.013Z,38.15
2022-08-14T16:25:00.134Z,38.48
2022-08-14T16:27:39.358Z,37.35
2022-08-14T16:30:24.622Z,36.98
2022-08-14T16:32:57.022Z,37.12
2022-08-14T16:35:41.897Z,36.79
2022-08-14T16:38:19.635Z,35.82
2022-08-14T16:41:06.568Z,35.22
2022-08-14T16:43:33.555Z,34.73
2022-08-14T16:46:00.575Z,35.29
2022-08-14T16:48:54.727Z,35.81
2022-08-14T16:51:15.058Z,35.40
2022-08-14T16:53:42.316Z,36.53
2022-08-14T16:56:23.438Z,36.73
2022-08-14T16:59:04.944Z,37.04
2022-08-14T17:01:31.942Z,38.62
2022-08-14T17:04:06.501Z,37.74
2022-08-14T17:06:38.140Z,37.04
2022-08-14T17:09:08.050Z,36.55
2022-08-14T17:11:54.582Z,37.06
2022-08-14T17:14:23.178Z,37.61
2022-08-14T17:16:56.887Z,38.05
2022-08-14T17:19:24.754Z,37.48
2022-08-14T17:21:52.813Z,36.72
2022-08-14T17:25:02.923Z,37.06
2022-08-14T17:27:08.689Z,37.46
2022-08-14T17:29:55.941Z,38.13
2022-08-14T17:32:29.356Z,38.84
2022-08-14T17:35:16.398Z,39.21
2022-08-14T17:37:47.402Z,39.04
2022-08-14T17:40:24.101Z,38.88
2022-08-14T17:42:55.018Z,39.56
2022-08-14T17:45:42.686Z,39.95
2022-08-14T17:49:14.062Z,40.02
2022-08-14T17:51:24.013Z,40.70
2022-08-14T17:54:01.243Z,40.90
2022-08-14T17:56:33.042Z,41.42
2022-08-14T17:59:07.368Z,41.55
2022-08-14T18:01:39.485Z,40.90
2022-08-14T18:04:24.746Z,40.84
2022-08-14T18:06:58.847Z,41.50
2022-08-14T18:09:56.919Z,41.50
2022-08-14T18:12:37.059Z,41.80
2022-08-14T18:15:16.147Z,42.58
2022-08-14T18:17:54.098Z,42.81
2022-08-14T18:21:43.112Z,43.17
2022-08-14T18:23:14.624Z,42.49
2022-08-14T18:25:54.504Z,43.20
2022-08-14T18:28:50.984Z,43.22
2022-08-14T18:31:24.389Z,43.96
2022-08-14T18:33:57.172Z,44.49
2022-08-14T18:37:09.631Z,44.68
2022-08-14T18:40:02.018Z,45.14
2022-08-14T18:42:34.918Z,45.49
2022-08-14T18:45:02.118Z,45.90
2022-08-14T18:48:51.733Z,46.38
2022-08-14T18:51:46.246Z,46.28
2022-08-14T18:54:32.828Z,46.80
2022-08-14T18:57:03.091Z,47.26
2022-08-14T18:59:35.441Z,47.69
2022-08-14T19:02:30.220Z,47.79
2022-08-14T19:04:59.655Z,48.48
2022-08-14T19:07:29.610Z,48.47
2022-08-14T19:10:07.423Z,49.03
2022-08-14T19:12:52.732Z,49.04
2022-08-14T19:15:35.035Z,48.88
2022-08-14T19:18:27.921Z,49.75
2022-08-14T19:21:18.250Z,49.88
2022-08-14T19:24:44.212Z,49.29
2022-08-14T19:27:19.268Z,49.40
2022-08-14T19:29:51.386Z,49.67
2022-08-14T19:32:36.482Z,50.58
2022-08-14T19:35:17.323Z,50.33
2022-08-14T19:37:47.792Z,49.78
2022-08-14T19:40:38.949Z,50.04
2022-08-14T19:43:56.582Z,50.72
2022-08-14T19:46:39.528Z,50.80
2022-08-14T19:49:06.651Z,50.13
2022-08-14T19:51:41.938Z,51.11
2022-08-14T19:54:13.522Z,51.42
2022-08-14T19:56:49.030Z,51.39
2022-08-14T19:59:25.776Z,51.29
2022-08-14T20:02:06.817Z,51.16
2022-08-14T20:04:45.820Z,50.66
2022-08-14T20:07:59.135Z,50.91
2022-08-14T20:11:06.479Z,50.74
2022-08-14T20:13:24.869Z,52.18
2022-08-14T20:16:12.423Z,51.37
2022-08-14T20:18:50.082Z,51.05
2022-08-14T20:21:18.581Z,50.98
2022-08-14T20:23:47.994Z,49.93
2022-08-14T20:26:31.293Z,48.52
2022-08-14T20:29:05.049Z,49.30
2022-08-14T20:31:42.383Z,47.57
2022-08-14T20:34:19.031Z,47.79
2022-08-14T20:37:10.369Z,48.19
2022-08-14T20:39:40.056Z,48.58
2022-08-14T20:42:19.329Z,48.45
2022-08-14T20:44:59.130Z,47.85
2022-08-14T20:48:00.864Z,47.53
2022-08-14T20:50:46.090Z,46.66
2022-08-14T20:53:28.830Z,46.23
2022-08-14T20:56:28.160Z,47.66
2022-08-14T20:58:50.561Z,48.63
2022-08-14T21:01:17.577Z,48.90
2022-08-14T21:03:56.247Z,49.49
2022-08-14T21:06:30.542Z,49.22
2022-08-14T21:09:17.615Z,48.86
2022-08-14T21:11:51.482Z,48.89
2022-08-14T21:14:34.160Z,45.70
2022-08-14T21:17:00.962Z,48.53
2022-08-14T21:19:30.821Z,48.10
2022-08-14T21:21:58.851Z,47.59
2022-08-14T21:24:46.971Z,48.29
2022-08-14T21:27:19.776Z,48.50
2022-08-14T21:29:55.441Z,48.36
2022-08-14T21:32:29.260Z,46.73
2022-08-14T21:35:08.078Z,46.00
2022-08-14T21:37:40.793Z,45.62
2022-08-14T21:40:40.806Z,46.02
2022-08-14T21:42:55.330Z,45.92
2022-08-14T21:45:22.154Z,46.38
2022-08-14T21:47:48.779Z,45.98
2022-08-14T21:50:39.568Z,45.92
2022-08-14T21:53:06.786Z,47.84
2022-08-14T21:55:37.406Z,48.31
2022-08-14T21:58:53.182Z,47.87
2022-08-14T22:00:52.223Z,46.96
2022-08-14T22:03:24.268Z,46.71
2022-08-14T22:05:56.904Z,46.58
2022-08-14T22:08:26.641Z,47.68
2022-08-14T22:10:59.151Z,47.55
2022-08-14T22:13:27.515Z,48.38
2022-08-14T22:16:02.008Z,48.69
2022-08-14T22:18:29.837Z,48.63
2022-08-14T22:20:56.922Z,48.31
2022-08-14T22:23:32.596Z,48.21
2022-08-14T22:26:03.315Z,47.90
2022-08-14T22:28:34.087Z,47.79
2022-08-14T22:31:10.518Z,48.12
2022-08-14T22:33:51.317Z,47.57
2022-08-14T22:36:48.604Z,48.24
2022-08-14T22:40:17.163Z,48.16
2022-08-14T22:42:21.464Z,48.80
2022-08-14T22:44:51.998Z,48.21
2022-08-14T22:47:25.004Z,48.37
2022-08-14T22:50:29.253Z,47.83
2022-08-14T22:52:38.855Z,46.31
2022-08-14T22:55:07.440Z,46.65
2022-08-14T22:57:37.935Z,46.97
2022-08-14T23:00:17.141Z,48.18
2022-08-14T23:02:44.737Z,47.75
2022-08-14T23:05:11.444Z,46.71
2022-08-14T23:08:58.527Z,47.05
2022-08-14T23:10:33.828Z,48.37
2022-08-14T23:13:03.686Z,47.75
2022-08-14T23:15:30.657Z,47.51
2022-08-14T23:17:57.957Z,47.42
2022-08-14T23:20:29.291Z,47.93
2022-08-14T23:22:57.754Z,47.83
2022-08-14T23:25:56.994Z,47.57
2022-08-14T23:28:34.909Z,47.90
2022-08-14T23:31:08.539Z,48.07
2022-08-14T23:33:46.099Z,48.25
2022-08-14T23:36:28.543Z,47.96
2022-08-14T23:38:59.635Z,47.48
2022-08-14T23:41:26.607Z,47.10
2022-08-14T23:44:14.788Z,48.23
2022-08-14T23:46:41.851Z,48.40
2022-08-14T23:49:12.599Z,48.35
2022-08-14T23:51:39.279Z,48.78
2022-08-14T23:54:06.149Z,48.93
2022-08-14T23:57:02.392Z,49.04
2022-08-14T23:59:31.704Z,48.75
